Time;durP1;ratioP1;P1;durP2;ratioP2;P2;SDS_P1;SDS_P2;PMS_P1;PMS_P2;Temp;Humidity;BMP_temperature;BMP_pressure;BME280_temperature;BME280_humidity;BME280_pressure;Samples;Min_cycle;Max_cycle;Signal;HPM_P1;HPM_P2
2022/08/27 00:01:04;;;;;;;;;;;;;;;23.44;60.47;99101.53;4472077;32;20038;-86
2022/08/27 00:03:29;;;;;;;;;;;;;;;23.45;60.45;99105.84;4457665;32;20036;-87
2022/08/27 00:05:54;;;;;;;;;;;;;;;23.14;60.44;99096.44;4457328;32;28790;-87
2022/08/27 00:08:19;;;;;;;;;;;;;;;23.22;60.45;99101.91;4444570;32;21870;-86
2022/08/27 00:10:45;;;;;;;;;;;;;;;23.01;60.43;99109.22;4444012;32;35770;-86
2022/08/27 00:13:10;;;;;;;;;;;;;;;;;;4444664;32;23329;-87
2022/08/27 00:15:35;;;;;;;;;;;;;;;23.07;60.44;99103.31;4472372;32;19969;-86
2022/08/27 00:18:00;;;;;;;;;;;;;;;23.00;60.43;99102.25;4472181;32;19979;-87
2022/08/27 00:20:26;;;;;;;;;;;;;;;22.94;60.43;99109.78;4457381;32;33238;-87
2022/08/27 00:22:51;;;;;;;;;;;;;;;23.00;60.43;99102.25;4458401;32;20022;-87
2022/08/27 00:25:17;;;;;;;;;;;;;;;23.01;60.43;99106.56;4445479;32;19973;-87
2022/08/27 00:27:42;;;;;;;;;;;;;;;22.82;60.43;99102.97;4445905;32;19987;-87
2022/08/27 00:30:08;;;;;;;;;;;;;;;22.76;60.42;99105.31;4472811;32;21455;-87
2022/08/27 00:32:33;;;;;;;;;;;;;;;22.87;60.42;99108.69;4460434;32;19981;-86
2022/08/27 00:34:59;;;;;;;;;;;;;;;22.62;60.41;99111.91;4449846;32;19984;-86
2022/08/27 00:37:24;;;;;;;;;;;;;;;22.81;60.43;99119.88;4456289;32;19977;-87
2022/08/27 00:39:49;;;;;;;;;;;;;;;22.59;60.41;99118.31;4457299;32;28143;-87
2022/08/27 00:42:14;;;;;;;;;;;;;;;22.64;60.42;99112.59;4457546;32;19995;-87
2022/08/27 00:44:40;;;;;;;;;;;;;;;22.64;60.42;99112.59;4456744;32;33627;-87
2022/08/27 00:47:06;;;;;;;;;;;;;;;22.50;60.41;99111.22;4457604;32;20004;-87
2022/08/27 00:49:31;;;;;;;;;;;;;;;22.44;60.40;99113.56;4470580;32;20325;-87
2022/08/27 00:52:04;;;;;;;;;;;;;;;22.24;60.39;99104.75;4470465;32;20040;-87
2022/08/27 00:54:29;;;;;;;;;;;;;;;22.33;60.40;99110.09;4470566;32;19992;-87
2022/08/27 00:56:54;;;;;;;;;;;;;;;22.19;60.39;99115.78;4471842;32;19973;-88
2022/08/27 00:59:21;;;;;;;;;;;;;;;22.34;60.40;99116.22;4469240;32;32062;-88
2022/08/27 01:04:32;;;;;;;;;;;;;;;22.37;60.40;99118.59;4470571;32;20030;-87
2022/08/27 01:06:58;;;;;;;;;;;;;;;22.31;60.39;99117.34;4457603;32;20017;-87
2022/08/27 01:09:23;;;;;;;;;;;;;;;22.29;60.40;99124.59;4457326;32;20609;-86
2022/08/27 01:11:48;;;;;;;;;;;;;;;22.32;60.39;99119.03;4457287;32;20028;-86
2022/08/27 01:14:14;;;;;;;;;;;;;;;22.38;60.40;99125.56;4471768;32;19973;-88
2022/08/27 01:16:42;;;;;;;;;;;;;;;22.17;60.38;99124.84;4470386;32;19984;-89
2022/08/27 01:19:19;;;;;;;;;;;;;;;22.35;60.40;99126.69;4470282;32;20024;-88
2022/08/27 01:21:50;;;;;;;;;;;;;;;22.30;60.39;99130.75;4470186;32;20045;-88
2022/08/27 01:24:27;;;;;;;;;;;;;;;22.27;60.40;99123.91;4471493;32;19992;-86
2022/08/27 01:26:52;;;;;;;;;;;;;;;22.13;60.39;99129.59;4471466;32;20031;-85
2022/08/27 01:29:17;;;;;;;;;;;;;;;22.31;60.39;99125.31;4469449;32;31041;-86
2022/08/27 01:31:42;;;;;;;;;;;;;;;22.21;60.39;99134.22;4456601;32;24807;-86
2022/08/27 01:34:08;;;;;;;;;;;;;;;22.26;60.40;99134.66;4469466;32;33711;-87
2022/08/27 01:36:33;;;;;;;;;;;;;;;22.23;60.39;99135.75;4469825;32;20520;-86
2022/08/27 01:38:58;;;;;;;;;;;;;;;22.10;60.40;99132.53;4469450;32;32656;-86
2022/08/27 01:41:23;;;;;;;;;;;;;;;22.11;60.39;99134.19;4469949;32;20292;-86
2022/08/27 01:43:49;;;;;;;;;;;;;;;22.18;60.39;99135.31;4469944;32;19977;-87
2022/08/27 01:46:14;;;;;;;;;;;;;;;22.13;60.38;99136.72;4469954;32;19981;-87
2022/08/27 01:48:39;;;;;;;;;;;;;;;22.09;60.38;99138.81;4470137;32;19993;-86
2022/08/27 01:51:04;;;;;;;;;;;;;;;22.18;60.39;99130.03;4470046;32;20227;-87
2022/08/27 01:53:31;;;;;;;;;;;;;;;21.98;60.38;99133.56;4457145;32;20004;-86
2022/08/27 01:55:56;;;;;;;;;;;;;;;21.90;60.38;99139.56;4457611;32;19985;-87
2022/08/27 01:58:23;;;;;;;;;;;;;;;22.01;60.37;99133.34;4457361;32;19996;-87
2022/08/27 02:00:49;;;;;;;;;;;;;;;21.96;60.38;99140.81;4457735;32;19996;-87
2022/08/27 02:03:17;;;;;;;;;;;;;;;21.91;60.37;99143.06;4471081;32;19987;-87
2022/08/27 02:05:42;;;;;;;;;;;;;;;21.68;60.36;99153.03;4471465;32;20026;-87
2022/08/27 02:08:07;;;;;;;;;;;;;;;21.79;60.36;99146.81;4473311;32;19973;-87
2022/08/27 02:10:34;;;;;;;;;;;;;;;21.66;60.36;99147.84;4459922;32;20258;-87
2022/08/27 02:13:00;;;;;;;;;;;;;;;21.76;60.36;99143.41;4481317;32;19953;-86
2022/08/27 02:15:25;;;;;;;;;;;;;;;21.74;60.36;99139.22;4459864;32;19973;-86
2022/08/27 02:17:51;;;;;;;;;;;;;;;21.57;60.36;99146.03;4470122;32;20358;-86
2022/08/27 02:20:16;;;;;;;;;;;;;;;21.65;60.36;99142.69;4469899;32;20025;-87
2022/08/27 02:22:41;;;;;;;;;;;;;;;21.56;60.36;99141.69;4457018;32;20029;-87
2022/08/27 02:25:07;;;;;;;;;;;;;;;21.81;60.37;99134.25;4456943;32;19973;-86
2022/08/27 02:27:33;;;;;;;;;;;;;;;21.85;60.36;99128.53;4469856;32;20025;-86
2022/08/27 02:29:58;;;;;;;;;;;;;;;21.70;60.36;99130.72;4456754;32;20027;-87
2022/08/27 02:32:23;;;;;;;;;;;;;;;21.45;60.35;99133.81;4456714;32;19980;-87
2022/08/27 02:34:48;;;;;;;;;;;;;;;21.45;60.35;99129.38;4469930;32;20223;-87
2022/08/27 02:37:14;;;;;;;;;;;;;;;21.55;60.35;99124.13;4469439;32;20781;-88
2022/08/27 02:39:39;;;;;;;;;;;;;;;21.61;60.36;99126.25;4470855;32;19988;-87
2022/08/27 02:42:04;;;;;;;;;;;;;;;21.52;60.35;99126.19;4456284;32;24758;-88
2022/08/27 02:44:30;;;;;;;;;;;;;;;21.33;60.35;99130.44;4456783;32;20021;-88
2022/08/27 02:46:56;;;;;;;;;;;;;;;21.35;60.34;99122.38;4456957;32;20403;-89
2022/08/27 02:49:21;;;;;;;;;;;;;;;21.34;60.35;99132.13;4456802;32;20001;-88
2022/08/27 02:51:46;;;;;;;;;;;;;;;21.49;60.36;99137.03;4456650;32;19984;-89
2022/08/27 02:54:12;;;;;;;;;;;;;;;21.36;60.35;99130.19;4443739;32;19977;-89
2022/08/27 02:56:38;;;;;;;;;;;;;;;21.47;60.34;99131.03;4443798;32;20571;-89
2022/08/27 02:59:03;;;;;;;;;;;;;;;21.41;60.35;99129.78;4456816;32;20003;-87
2022/08/27 03:01:29;;;;;;;;;;;;;;;21.39;60.34;99132.56;4470744;32;20000;-88
2022/08/27 03:03:55;;;;;;;;;;;;;;;21.51;60.36;99129.81;4456527;32;20302;-88
2022/08/27 03:06:20;;;;;;;;;;;;;;;21.37;60.34;99128.38;4456712;32;20042;-88
2022/08/27 03:08:45;;;;;;;;;;;;;;;21.46;60.35;99119.63;4456129;32;27755;-88
2022/08/27 03:11:11;;;;;;;;;;;;;;;21.37;60.34;99123.06;4470568;32;20014;-88
2022/08/27 03:13:36;;;;;;;;;;;;;;;21.30;60.34;99125.41;4443707;32;19991;-87
2022/08/27 03:16:02;;;;;;;;;;;;;;;21.34;60.34;99131.28;4443647;32;20020;-88
2022/08/27 03:18:27;;;;;;;;;;;;;;;21.19;60.34;99137.84;4456648;32;19985;-88
2022/08/27 03:20:53;;;;;;;;;;;;;;;21.15;60.33;99135.47;4456385;32;19973;-87
2022/08/27 03:23:20;;;;;;;;;;;;;;;21.19;60.34;99135.22;4443284;32;20008;-87
2022/08/27 03:25:51;;;;;;;;;;;;;;;21.08;60.32;99136.97;4443588;32;19985;-87
2022/08/27 03:28:20;;;;;;;;;;;;;;;21.12;60.34;99132.25;4456731;32;20004;-86
2022/08/27 03:30:52;;;;;;;;;;;;;;;20.92;60.32;99136.59;4470588;32;19972;-87
2022/08/27 03:33:18;;;;;;;;;;;;;;;21.09;60.33;99137.81;4470952;32;20008;-87
2022/08/27 03:35:44;;;;;;;;;;;;;;;21.20;60.34;99137.72;4443716;32;19996;-88
2022/08/27 03:38:09;;;;;;;;;;;;;;;21.12;60.33;99130.44;4456865;32;20318;-89
2022/08/27 03:40:34;;;;;;;;;;;;;;;21.07;60.32;99137.09;4460420;32;19973;-88
2022/08/27 03:42:59;;;;;;;;;;;;;;;21.03;60.33;99133.00;4470860;32;20317;-86
2022/08/27 03:45:26;;;;;;;;;;;;;;;20.99;60.32;99135.09;4472119;32;32308;-87
2022/08/27 03:47:51;;;;;;;;;;;;;;;21.08;60.32;99134.31;4476563;32;19957;-87
2022/08/27 03:50:17;;;;;;;;;;;;;;;21.01;60.33;99135.78;4478706;32;20012;-88
2022/08/27 03:52:42;;;;;;;;;;;;;;;20.97;60.32;99138.84;4468895;32;35001;-88
2022/08/27 03:55:07;;;;;;;;;;;;;;;20.98;60.32;99129.94;4468806;32;32720;-87
2022/08/27 03:57:34;;;;;;;;;;;;;;;20.93;60.32;99140.91;4468928;32;19981;-87
2022/08/27 04:00:00;;;;;;;;;;;;;;;20.99;60.32;99139.53;4470102;32;19972;-89
2022/08/27 04:02:25;;;;;;;;;;;;;;;21.08;60.32;99139.63;4468484;32;20014;-89
2022/08/27 04:04:50;;;;;;;;;;;;;;;20.95;60.33;99136.31;4455712;32;19984;-88
2022/08/27 04:07:15;;;;;;;;;;;;;;;20.86;60.32;99137.09;4468828;32;20278;-87
2022/08/27 04:09:41;;;;;;;;;;;;;;;20.77;60.31;99143.16;4470101;32;20016;-87
2022/08/27 04:12:06;;;;;;;;;;;;;;;20.86;60.32;99141.56;4469756;32;19988;-86
2022/08/27 04:14:33;;;;;;;;;;;;;;;20.95;60.33;99136.31;4469910;32;20032;-86
2022/08/27 04:16:59;;;;;;;;;;;;;;;21.00;60.32;99139.41;4469923;32;19976;-88
2022/08/27 04:19:24;;;;;;;;;;;;;;;20.92;60.32;99139.22;4469833;32;20278;-88
2022/08/27 04:21:49;;;;;;;;;;;;;;;20.91;60.32;99134.06;4469577;32;19981;-87
2022/08/27 04:24:15;;;;;;;;;;;;;;;20.94;60.33;99134.66;4468177;32;21903;-88
2022/08/27 04:26:41;;;;;;;;;;;;;;;20.97;60.32;99136.19;4469860;32;19973;-88
2022/08/27 04:29:06;;;;;;;;;;;;;;;21.06;60.33;99146.84;4469620;32;20348;-91
2022/08/27 04:31:32;;;;;;;;;;;;;;;20.91;60.32;99144.66;4468176;32;19995;-87
2022/08/27 04:33:57;;;;;;;;;;;;;;;21.02;60.33;99148.06;4469932;32;19996;-85
2022/08/27 04:36:22;;;;;;;;;;;;;;;21.04;60.33;99139.97;4471095;32;25023;-86
2022/08/27 04:38:47;;;;;;;;;;;;;;;21.20;60.33;99142.19;4470255;32;20251;-88
2022/08/27 04:41:20;;;;;;;;;;;;;;;21.20;60.34;99140.37;4456912;32;19972;-87
2022/08/27 04:43:46;;;;;;;;;;;;;;;21.14;60.33;99136.44;4458218;32;20006;-86
2022/08/27 04:46:11;;;;;;;;;;;;;;;21.15;60.33;99143.41;4470581;32;19989;-86
2022/08/27 04:48:36;;;;;;;;;;;;;;;21.12;60.33;99146.31;4470525;32;20313;-87
2022/08/27 04:51:01;;;;;;;;;;;;;;;21.26;60.34;99141.69;4470816;32;33602;-87
2022/08/27 04:53:27;;;;;;;;;;;;;;;21.36;60.35;99134.63;4471101;32;22194;-86
2022/08/27 04:55:53;;;;;;;;;;;;;;;21.36;60.34;99132.81;4470448;32;20015;-87
2022/08/27 04:58:19;;;;;;;;;;;;;;;21.55;60.34;99133.88;4470542;32;20008;-87
2022/08/27 05:00:49;;;;;;;;;;;;;;;21.62;60.36;99137.66;4470159;32;19992;-86
2022/08/27 05:03:15;;;;;;;;;;;;;;;21.72;60.36;99133.22;4470192;32;20000;-86
2022/08/27 05:05:40;;;;;;;;;;;;;;;22.07;60.37;99134.63;4471517;32;20313;-87
2022/08/27 05:08:06;;;;;;;;;;;;;;;21.99;60.37;99136.09;4470731;32;19982;-87
2022/08/27 05:10:37;;;;;;;;;;;;;;;22.15;60.38;99138.25;4456750;32;32335;-87
2022/08/27 05:13:02;;;;;;;;;;;;;;;22.20;60.39;99138.66;4472079;32;20036;-86
2022/08/27 05:15:30;;;;;;;;;;;;;;;22.36;60.39;99141.63;4472369;32;19995;-87
2022/08/27 05:17:59;;;;;;;;;;;;;;;22.57;60.41;99135.34;4472074;32;19949;-87
2022/08/27 05:20:25;;;;;;;;;;;;;;;22.73;60.42;99130.31;4472673;32;19984;-86
2022/08/27 05:22:50;;;;;;;;;;;;;;;22.71;60.41;99137.56;4473130;32;19988;-86
2022/08/27 05:25:15;;;;;;;;;;;;;;;22.84;60.42;99135.50;4477348;32;32242;-87
2022/08/27 05:27:41;;;;;;;;;;;;;;;22.87;60.41;99135.22;4470505;32;19980;-86
2022/08/27 05:30:07;;;;;;;;;;;;;;;23.13;60.43;99138.09;4471613;32;19973;-87
2022/08/27 05:32:32;;;;;;;;;;;;;;;23.09;60.43;99130.56;4470283;32;20031;-87
2022/08/27 05:34:57;;;;;;;;;;;;;;;23.18;60.43;99133.19;4470920;32;19993;-87
2022/08/27 05:37:22;;;;;;;;;;;;;;;23.63;60.46;99134.31;4457054;32;19988;-87
2022/08/27 05:39:47;;;;;;;;;;;;;;;23.51;60.45;99137.16;4456986;32;20022;-87
2022/08/27 05:42:13;;;;;;;;;;;;;;;23.65;60.45;99129.69;4456354;32;28990;-87
2022/08/27 05:44:38;;;;;;;;;;;;;;;23.66;60.47;99124.25;4457191;32;20064;-87
2022/08/27 05:47:04;;;;;;;;;;;;;;;23.77;60.46;99129.34;4456186;32;32750;-86
2022/08/27 05:49:30;;;;;;;;;;;;;;;23.85;60.47;99123.28;4456647;32;22432;-86
2022/08/27 05:51:55;;;;;;;;;;;;;;;24.14;60.49;99131.13;4444069;32;20035;-88
2022/08/27 05:54:21;;;;;;;;;;;;;;;24.27;60.49;99130.72;4455817;32;34196;-86
2022/08/27 05:56:46;;;;;;;;;;;;;;;24.42;60.50;99124.78;4456780;32;20020;-86
2022/08/27 06:01:55;;;;;;;;;;;;;;;24.39;60.50;99129.56;4459208;32;20030;-85
2022/08/27 06:04:21;;;;;;;;;;;;;;;24.63;60.51;99128.94;4471196;32;20321;-86
2022/08/27 06:06:47;;;;;;;;;;;;;;;25.08;60.54;99128.81;4456931;32;19976;-86
2022/08/27 06:09:13;;;;;;;;;;;;;;;25.11;60.53;99128.50;4456808;32;20058;-86
2022/08/27 06:11:39;;;;;;;;;;;;;;;25.05;60.53;99127.28;4471116;32;20076;-85
2022/08/27 06:14:04;;;;;;;;;;;;;;;25.18;60.53;99132.19;4457024;32;20007;-85
2022/08/27 06:16:29;;;;;;;;;;;;;;;25.29;60.54;99131.09;4456715;32;19977;-86
2022/08/27 06:18:58;;;;;;;;;;;;;;;25.38;60.54;99123.00;4456826;32;19977;-86
2022/08/27 06:21:23;;;;;;;;;;;;;;;25.57;60.56;99127.25;4457026;32;20012;-85
2022/08/27 06:23:48;;;;;;;;;;;;;;;25.99;60.58;99129.91;4443578;32;20399;-85
2022/08/27 06:26:14;;;;;;;;;;;;;;;25.95;60.58;99130.41;4470545;32;24002;-86
2022/08/27 06:28:40;;;;;;;;;;;;;;;26.08;60.58;99135.31;4456760;32;20008;-86
2022/08/27 06:31:05;;;;;;;;;;;;;;;26.17;60.58;99134.31;4470885;32;20087;-85
2022/08/27 06:33:30;;;;;;;;;;;;;;;26.31;60.59;99141.69;4471078;32;20014;-85
2022/08/27 06:36:02;;;;;;;;;;;;;;;26.30;60.60;99137.34;4443968;32;20304;-86
2022/08/27 06:38:27;;;;;;;;;;;;;;;26.37;60.60;99145.56;4457049;32;20044;-87
2022/08/27 06:40:53;;;;;;;;;;;;;;;26.61;60.61;99148.25;4469994;32;31212;-88
2022/08/27 06:43:18;;;;;;;;;;;;;;;26.87;60.62;99150.75;4456959;32;19976;-87
2022/08/27 06:45:43;;;;;;;;;;;;;;;27.13;60.64;99147.94;4456161;32;19984;-86
2022/08/27 06:48:09;;;;;;;;;;;;;;;27.16;60.64;99151.09;4471182;32;20038;-88
2022/08/27 06:50:37;;;;;;;;;;;;;;;27.27;60.64;99144.56;4457150;32;24446;-85
2022/08/27 06:53:03;;;;;;;;;;;;;;;27.44;60.66;99148.00;4472355;32;19981;-86
2022/08/27 06:55:28;;;;;;;;;;;;;;;27.62;60.66;99143.31;4459416;32;19973;-85
2022/08/27 06:57:53;;;;;;;;;;;;;;;27.76;60.67;99145.28;4459617;32;20283;-86
2022/08/27 07:00:18;;;;;;;;;;;;;;;27.88;60.68;99147.56;4466578;32;34081;-85
2022/08/27 07:02:44;;;;;;;;;;;;;;;28.13;60.68;99144.56;4448742;32;25583;-87
2022/08/27 07:05:10;;;;;;;;;;;;;;;28.21;60.69;99153.59;4456136;32;31673;-87
2022/08/27 07:07:36;;;;;;;;;;;;;;;28.26;60.70;99152.06;4470912;32;19986;-87
2022/08/27 07:10:01;;;;;;;;;;;;;;;28.35;60.70;99151.00;4470240;32;26967;-87
2022/08/27 07:12:26;;;;;;;;;;;;;;;28.45;60.70;99149.94;4470811;32;19965;-87
2022/08/27 07:14:51;;;;;;;;;;;;;;;28.47;60.71;99161.31;4470619;32;20326;-87
2022/08/27 07:17:17;;;;;;;;;;;;;;;28.62;60.71;99156.84;4470751;32;20325;-87
2022/08/27 07:19:42;;;;;;;;;;;;;;;28.87;60.74;99166.41;4456409;32;20007;-87
2022/08/27 07:22:07;;;;;;;;;;;;;;;28.84;60.73;99172.06;4456576;32;19995;-87
2022/08/27 07:24:33;;;;;;;;;;;;;;;28.94;60.74;99172.69;4469999;32;28152;-87
2022/08/27 07:26:58;;;;;;;;;;;;;;;29.11;60.74;99168.03;4470533;32;20290;-87
2022/08/27 07:29:24;;;;;;;;;;;;;;;29.10;60.75;99176.22;4470345;32;20295;-87
2022/08/27 07:31:49;;;;;;;;;;;;;;;29.21;60.75;99165.91;4456460;32;20011;-87
2022/08/27 07:34:14;;;;;;;;;;;;;;;29.28;60.75;99172.19;4455641;32;32941;-87
2022/08/27 07:36:40;;;;;;;;;;;;;;;29.24;60.75;99168.22;4470989;32;19969;-87
2022/08/27 07:39:05;;;;;;;;;;;;;;;29.40;60.76;99171.75;4456664;32;20573;-87
2022/08/27 07:41:30;;;;;;;;;;;;;;;29.45;60.76;99175.59;4470835;32;19965;-87
2022/08/27 07:46:40;;;;;;;;;;;;;;;29.59;60.77;99172.09;4458314;32;19988;-88
2022/08/27 07:49:05;;;;;;;;;;;;;;;29.77;60.78;99173.53;4443798;32;19988;-87
2022/08/27 07:51:31;;;;;;;;;;;;;;;30.03;60.79;99173.03;4470255;32;27255;-88
2022/08/27 07:53:56;;;;;;;;;;;;;;;30.11;60.79;99164.94;4470755;32;19976;-87
2022/08/27 07:56:22;;;;;;;;;;;;;;;30.10;60.79;99165.94;4470429;32;20007;-87
2022/08/27 07:58:47;;;;;;;;;;;;;;;29.98;60.79;99173.59;4456482;32;19996;-88
2022/08/27 08:01:12;;;;;;;;;;;;;;;30.07;60.80;99169.00;4469977;32;27306;-87
2022/08/27 08:03:38;;;;;;;;;;;;;;;30.21;60.81;99162.75;4470634;32;19989;-88
2022/08/27 08:06:04;;;;;;;;;;;;;;;30.17;60.80;99162.31;4470993;32;20318;-88
2022/08/27 08:08:30;;;;;;;;;;;;;;;30.33;60.81;99157.75;4443557;32;19992;-87
2022/08/27 08:10:58;;;;;;;;;;;;;;;30.54;60.83;99161.28;4444151;32;32738;-87
2022/08/27 08:13:23;;;;;;;;;;;;;;;30.46;60.82;99164.06;4445180;32;19987;-87
2022/08/27 08:15:48;;;;;;;;;;;;;;;30.63;60.83;99169.22;4445079;32;20289;-86
2022/08/27 08:18:14;;;;;;;;;;;;;;;30.67;60.83;99165.97;4471605;32;32751;-90
2022/08/27 08:20:39;;;;;;;;;;;;;;;30.81;60.83;99173.13;4445003;32;20008;-90
2022/08/27 08:23:05;;;;;;;;;;;;;;;30.95;60.84;99175.91;4458348;32;19977;-90
2022/08/27 08:25:30;;;;;;;;;;;;;;;31.05;60.85;99173.75;4458517;32;20020;-89
2022/08/27 08:27:55;;;;;;;;;;;;;;;31.10;60.85;99169.44;4445629;32;20354;-90
2022/08/27 08:30:21;;;;;;;;;;;;;;;31.41;60.87;99165.53;4458018;32;19984;-89
2022/08/27 08:32:50;;;;;;;;;;;;;;;31.52;60.87;99167.69;4445152;32;20015;-90
2022/08/27 08:35:16;;;;;;;;;;;;;;;31.45;60.86;99172.19;4458856;32;19953;-90
2022/08/27 08:37:42;;;;;;;;;;;;;;;31.64;60.88;99173.34;4459957;32;20033;-90
2022/08/27 08:40:07;;;;;;;;;;;;;;;31.88;60.89;99170.19;4473826;32;20082;-88
2022/08/27 08:42:38;;;;;;;;;;;;;;;32.13;60.91;99169.66;4470352;32;20313;-89
2022/08/27 08:45:04;;;;;;;;;;;;;;;32.23;60.91;99168.25;4457386;32;20341;-89
2022/08/27 08:47:56;;;;;;;;;;;;;;;32.35;60.92;99172.03;4470960;32;20026;-89
2022/08/27 08:50:34;;;;;;;;;;;;;;;32.63;60.93;99174.59;4447478;32;19976;-88
2022/08/27 08:53:20;;;;;;;;;;;;;;;32.71;60.93;99167.34;4470808;32;19991;-88
2022/08/27 08:55:55;;;;;;;;;;;;;;;32.75;60.94;99161.34;4470927;32;19969;-88
2022/08/27 08:58:33;;;;;;;;;;;;;;;32.83;60.93;99160.34;4470255;32;20011;-87
2022/08/27 09:00:59;;;;;;;;;;;;;;;32.99;60.95;99162.63;4471824;32;20602;-87
2022/08/27 09:03:25;;;;;;;;;;;;;;;33.20;60.95;99165.09;4457529;32;20455;-86
2022/08/27 09:06:10;;;;;;;;;;;;;;;33.49;60.98;99166.53;4471819;32;19976;-86
2022/08/27 09:08:37;;;;;;;;;;;;;;;33.62;60.98;99156.75;4406807;32;19986;-87
2022/08/27 09:11:09;;;;;;;;;;;;;;;33.68;60.98;99156.75;4457866;32;20016;-85
2022/08/27 09:13:39;;;;;;;;;;;;;;;33.66;60.98;99164.22;4471568;32;19989;-86
2022/08/27 09:16:05;;;;;;;;;;;;;;;33.79;60.99;99156.06;4457647;32;19987;-91
2022/08/27 09:18:30;;;;;;;;;;;;;;;33.88;61.00;99163.97;4471918;32;20004;-90
2022/08/27 09:20:59;;;;;;;;;;;;;;;33.98;61.00;99153.53;4455631;32;20410;-92
2022/08/27 09:23:29;;;;;;;;;;;;;;;34.13;61.01;99144.12;4444410;32;20390;-92
2022/08/27 09:25:55;;;;;;;;;;;;;;;34.22;61.01;99143.84;4470140;32;19994;-89
2022/08/27 09:31:32;;;;;;;;;;;;;;;34.69;61.03;99139.84;4469844;32;20038;-88
2022/08/27 09:33:58;;;;;;;;;;;;;;;35.02;61.05;99134.19;4468616;32;19981;-90
2022/08/27 09:36:23;;;;;;;;;;;;;;;35.02;61.05;99140.44;4456379;32;20557;-88
2022/08/27 09:38:53;;;;;;;;;;;;;;;35.00;61.04;99134.41;4468417;32;19988;-90
2022/08/27 09:41:21;;;;;;;;;;;;;;;35.23;61.05;99135.66;4455013;32;20025;-88
2022/08/27 09:43:55;;;;;;;;;;;;;;;35.18;61.05;99132.78;4469449;32;19999;-87
2022/08/27 09:46:21;;;;;;;;;;;;;;;35.24;61.05;99140.84;4456223;32;20071;-87
2022/08/27 09:48:46;;;;;;;;;;;;;;;35.18;61.06;99136.31;4469445;32;19993;-87
2022/08/27 09:51:12;;;;;;;;;;;;;;;35.40;61.06;99135.94;4456087;32;20016;-88
2022/08/27 09:53:56;;;;;;;;;;;;;;;35.26;61.06;99140.63;4469282;32;19991;-89
2022/08/27 09:56:32;;;;;;;;;;;;;;;35.27;61.06;99140.41;4469617;32;19969;-90
2022/08/27 09:59:05;;;;;;;;;;;;;;;35.37;61.06;99135.31;4455864;32;19997;-89
2022/08/27 10:01:31;;;;;;;;;;;;;;;35.49;61.07;99127.31;4469304;32;19993;-89
2022/08/27 10:04:10;;;;;;;;;;;;;;;35.54;61.08;99124.75;4456323;32;19969;-89
2022/08/27 10:06:36;;;;;;;;;;;;;;;35.64;61.07;99125.03;4469470;32;19977;-89
2022/08/27 10:09:33;;;;;;;;;;;;;;;35.66;61.08;99128.34;4470429;32;19981;-90
2022/08/27 10:12:05;;;;;;;;;;;;;;;35.88;61.10;99128.72;4474423;32;20022;-89
2022/08/27 10:14:31;;;;;;;;;;;;;;;35.95;61.09;99125.91;4483177;32;20002;-89
2022/08/27 10:17:16;;;;;;;;;;;;;;;35.82;61.09;99123.38;4471096;32;19972;-89
2022/08/27 10:19:44;;;;;;;;;;;;;;;36.02;61.10;99121.25;4471158;32;20034;-89
2022/08/27 10:22:11;;;;;;;;;;;;;;;36.12;61.10;99124.25;4471092;32;19985;-89
2022/08/27 10:24:56;;;;;;;;;;;;;;;36.47;61.12;99124.41;4469544;32;19977;-88
2022/08/27 10:27:33;;;;;;;;;;;;;;;36.56;61.13;99130.31;4471291;32;19980;-88
2022/08/27 10:30:01;;;;;;;;;;;;;;;36.54;61.11;99125.13;4471315;32;19989;-89
2022/08/27 10:32:26;;;;;;;;;;;;;;;36.15;61.11;99131.06;4469023;32;19997;-89
2022/08/27 10:35:11;;;;;;;;;;;;;;;36.35;61.11;99122.69;4471236;32;19977;-89
2022/08/27 10:37:37;;;;;;;;;;;;;;;36.61;61.12;99130.44;4470808;32;19964;-89
2022/08/27 10:40:08;;;;;;;;;;;;;;;36.51;61.11;99124.75;4471249;32;20031;-90
2022/08/27 10:42:52;;;;;;;;;;;;;;;36.47;61.12;99137.13;4470010;32;20030;-90
2022/08/27 10:45:30;;;;;;;;;;;;;;;36.62;61.13;99133.97;4471515;32;19989;-89
2022/08/27 10:48:07;;;;;;;;;;;;;;;36.68;61.13;99130.34;4471331;32;19965;-90
2022/08/27 10:50:32;;;;;;;;;;;;;;;36.73;61.13;99128.56;4469368;32;20000;-90
2022/08/27 10:53:16;;;;;;;;;;;;;;;36.50;61.12;99125.81;4471271;32;20029;-89
2022/08/27 10:55:44;;;;;;;;;;;;;;;36.41;61.12;99119.88;4469844;32;20672;-90
2022/08/27 10:58:14;;;;;;;;;;;;;;;36.23;61.11;99117.22;4468198;32;20337;-89
2022/08/27 11:00:59;;;;;;;;;;;;;;;36.37;61.11;99120.59;4470310;32;20131;-89
2022/08/27 11:03:27;;;;;;;;;;;;;;;36.53;61.13;99122.63;4470442;32;19999;-90
2022/08/27 11:05:52;;;;;;;;;;;;;;;36.83;61.13;99119.88;4470834;32;19981;-91
2022/08/27 11:08:17;;;;;;;;;;;;;;;37.03;61.15;99120.38;4456469;32;20286;-90
2022/08/27 11:10:46;;;;;;;;;;;;;;;37.15;61.15;99115.78;4470931;32;19984;-89
2022/08/27 11:13:13;;;;;;;;;;;;;;;37.30;61.16;99106.34;4456683;32;19999;-89
2022/08/27 11:15:40;;;;;;;;;;;;;;;37.40;61.16;99112.84;4456402;32;20040;-89
2022/08/27 11:18:21;;;;;;;;;;;;;;;37.42;61.16;99104.44;4469787;32;19973;-90
2022/08/27 11:20:46;;;;;;;;;;;;;;;37.59;61.17;99104.50;4456501;32;20326;-88
2022/08/27 11:23:47;;;;;;;;;;;;;;;37.68;61.18;99106.63;4466366;32;20023;-87
2022/08/27 11:26:13;;;;;;;;;;;;;;;37.60;61.18;99103.44;4393658;32;20009;-88
2022/08/27 11:28:42;;;;;;;;;;;;;;;37.48;61.17;99104.31;4452615;32;20014;-89
2022/08/27 11:31:26;;;;;;;;;;;;;;;37.56;61.17;99096.84;4455736;32;19989;-89
2022/08/27 11:33:56;;;;;;;;;;;;;;;37.63;61.18;99094.84;4470296;32;20077;-88
2022/08/27 11:36:44;;;;;;;;;;;;;;;37.48;61.17;99093.44;4456345;32;19976;-89
2022/08/27 11:39:21;;;;;;;;;;;;;;;37.57;61.17;99090.34;4469779;32;19993;-89
2022/08/27 11:41:53;;;;;;;;;;;;;;;37.52;61.18;99096.50;4469781;32;20000;-89
2022/08/27 11:44:19;;;;;;;;;;;;;;;37.55;61.17;99093.31;4470956;32;20356;-90
2022/08/27 11:46:48;;;;;;;;;;;;;;;37.61;61.18;99092.34;4471264;32;20059;-89
2022/08/27 11:49:26;;;;;;;;;;;;;;;37.66;61.18;99089.75;4473029;32;19960;-88
2022/08/27 11:51:59;;;;;;;;;;;;;;;37.67;61.17;99096.00;4482030;32;19961;-87
2022/08/27 11:54:26;;;;;;;;;;;;;;;37.74;61.18;99086.69;4458515;32;19984;-90
2022/08/27 11:56:51;;;;;;;;;;;;;;;37.40;61.16;99082.97;4456233;32;19977;-90
2022/08/27 11:59:20;;;;;;;;;;;;;;;37.62;61.18;99074.16;4442394;32;884107;-90
2022/08/27 12:01:45;;;;;;;;;;;;;;;37.83;61.18;99076.25;4468612;32;19988;-92
2022/08/27 12:04:23;;;;;;;;;;;;;;;37.71;61.19;99076.28;4468870;32;20327;-91
2022/08/27 12:07:08;;;;;;;;;;;;;;;37.62;61.18;99071.44;4468622;32;19992;-91
2022/08/27 12:09:46;;;;;;;;;;;;;;;37.57;61.17;99068.63;4470036;32;20352;-91
2022/08/27 12:12:15;;;;;;;;;;;;;;;37.38;61.17;99070.66;4468712;32;20004;-91
2022/08/27 12:15:10;;;;;;;;;;;;;;;37.41;61.16;99065.63;4455601;32;20095;-91
2022/08/27 12:17:39;;;;;;;;;;;;;;;37.05;61.15;99063.16;4457625;32;20423;-91
2022/08/27 12:20:11;;;;;;;;;;;;;;;36.97;61.15;99056.22;4468534;32;19973;-89
2022/08/27 12:23:38;;;;;;;;;;;;;;;37.01;61.15;99059.25;4455313;32;20436;-90
2022/08/27 12:25:21;;;;;;;;;;;;;;;36.75;61.14;99055.13;4470147;32;19988;-90
2022/08/27 12:27:53;;;;;;;;;;;;;;;36.89;61.14;99057.38;4468646;32;19988;-91
2022/08/27 12:30:31;;;;;;;;;;;;;;;37.03;61.15;99055.25;4468499;32;19978;-91
2022/08/27 12:32:57;;;;;;;;;;;;;;;37.00;61.15;99049.47;4468353;32;20370;-91
2022/08/27 12:35:26;;;;;;;;;;;;;;;37.05;61.15;99049.59;4455258;32;19993;-91
2022/08/27 12:37:53;;;;;;;;;;;;;;;36.99;61.15;99053.25;4468372;32;19973;-90
2022/08/27 12:40:48;;;;;;;;;;;;;;;37.07;61.15;99044.75;4467967;32;19981;-91
2022/08/27 12:43:18;;;;;;;;;;;;;;;37.03;61.16;99040.84;4451478;32;20360;-90
2022/08/27 12:45:46;;;;;;;;;;;;;;;37.06;61.15;99032.25;4455144;32;20064;-90
2022/08/27 12:48:11;;;;;;;;;;;;;;;36.86;61.15;99038.84;4469465;32;19968;-91
2022/08/27 12:50:39;;;;;;;;;;;;;;;36.82;61.14;99031.44;4467866;32;20014;-91
2022/08/27 12:53:20;;;;;;;;;;;;;;;37.14;61.16;99026.44;4455267;32;19992;-91
2022/08/27 12:55:48;;;;;;;;;;;;;;;37.14;61.16;99034.56;4468821;32;19992;-91
2022/08/27 12:58:34;;;;;;;;;;;;;;;37.33;61.16;99022.53;4457388;32;20365;-91
2022/08/27 13:01:07;;;;;;;;;;;;;;;37.33;61.16;99021.72;4471568;32;19964;-92
2022/08/27 13:03:33;;;;;;;;;;;;;;;37.31;61.16;99019.25;4470233;32;20056;-92